Time;durP1;ratioP1;P1;durP2;ratioP2;P2;SDS_P1;SDS_P2;PMS_P1;PMS_P2;Temp;Humidity;BMP_temperature;BMP_pressure;BME280_temperature;BME280_humidity;BME280_pressure;Samples;Min_cycle;Max_cycle;Signal;HPM_P1;HPM_P2
2021/04/11 00:02:05;;;;;;;;;;;9.80;84.10;;;;;;5019781;28;87803;-68
2021/04/11 00:04:31;;;;;;;;;;;9.80;84.00;;;;;;5023074;28;87189;-68
2021/04/11 00:06:57;;;;;;;;;;;9.80;84.00;;;;;;5021034;28;88060;-68
2021/04/11 00:09:22;;;;;;;;;;;9.80;84.00;;;;;;5022007;28;88418;-68
2021/04/11 00:11:48;;;;;;;;;;;9.80;84.00;;;;;;5021208;28;88229;-68
2021/04/11 00:14:13;;;;;;;;;;;9.80;83.80;;;;;;5022646;28;87189;-68
2021/04/11 00:16:39;;;;;;;;;;;9.70;83.70;;;;;;5020286;28;87852;-68
2021/04/11 00:19:04;;;;;;;;;;;9.80;84.10;;;;;;5017806;28;88187;-68
2021/04/11 00:21:30;;;;;;;;;;;9.70;83.30;;;;;;5018360;28;87131;-68
2021/04/11 00:23:55;;;;;;;;;;;9.70;83.80;;;;;;5018971;28;87555;-68
2021/04/11 00:26:21;;;;;;;;;;;9.70;83.80;;;;;;5021304;28;88180;-68
2021/04/11 00:28:46;;;;;;;;;;;9.70;84.10;;;;;;5019884;28;87357;-67
2021/04/11 00:31:12;;;;;;;;;;;9.70;83.80;;;;;;5020197;28;88091;-68
2021/04/11 00:33:40;;;;;;;;;;;9.70;84.10;;;;;;5022496;28;87351;-68
2021/04/11 00:36:05;;;;;;;;;;;9.60;83.80;;;;;;5021032;28;87128;-68
2021/04/11 00:38:31;;;;;;;;;;;9.60;83.90;;;;;;5020130;28;88196;-68
2021/04/11 00:41:00;;;;;;;;;;;9.60;84.00;;;;;;5021398;28;87209;-68
2021/04/11 00:43:28;;;;;;;;;;;9.60;83.90;;;;;;5018250;28;87760;-68
2021/04/11 00:46:14;;;;;;;;;;;9.60;83.70;;;;;;5022075;28;88299;-68
2021/04/11 00:48:39;;;;;;;;;;;9.60;83.60;;;;;;5024156;28;86510;-68
2021/04/11 00:51:16;;;;;;;;;;;9.60;84.00;;;;;;5021750;28;87199;-68
2021/04/11 00:53:43;;;;;;;;;;;9.60;83.90;;;;;;5020888;28;87270;-68
2021/04/11 00:56:10;;;;;;;;;;;9.60;83.80;;;;;;5019076;28;88529;-68
2021/04/11 00:58:36;;;;;;;;;;;9.60;83.70;;;;;;5018829;28;88326;-68
2021/04/11 01:01:03;;;;;;;;;;;9.50;84.00;;;;;;5020334;28;87158;-68
2021/04/11 01:03:31;;;;;;;;;;;9.50;84.00;;;;;;5019623;28;87155;-68
2021/04/11 01:05:57;;;;;;;;;;;9.50;83.90;;;;;;5021481;28;87270;-68
2021/04/11 01:08:25;;;;;;;;;;;9.50;83.90;;;;;;5021805;28;87217;-68
2021/04/11 01:10:50;;;;;;;;;;;9.50;84.00;;;;;;5022308;28;87584;-68
2021/04/11 01:13:16;;;;;;;;;;;9.50;84.00;;;;;;5021518;28;86475;-68
2021/04/11 01:15:41;;;;;;;;;;;9.50;83.90;;;;;;5021693;28;87158;-68
2021/04/11 01:18:07;;;;;;;;;;;9.40;83.80;;;;;;5021507;28;87868;-68
2021/04/11 01:20:33;;;;;;;;;;;9.40;83.80;;;;;;5018441;28;88813;-68
2021/04/11 01:23:08;;;;;;;;;;;9.40;83.40;;;;;;5017778;28;88283;-68
2021/04/11 01:25:35;;;;;;;;;;;9.40;83.60;;;;;;5016746;28;88432;-68
2021/04/11 01:28:04;;;;;;;;;;;9.40;83.90;;;;;;5019794;28;87126;-68
2021/04/11 01:30:31;;;;;;;;;;;9.40;84.00;;;;;;5017888;28;88856;-68
2021/04/11 01:32:57;;;;;;;;;;;9.40;84.00;;;;;;5023521;28;88522;-68
2021/04/11 01:35:24;;;;;;;;;;;9.40;83.90;;;;;;5020891;28;87190;-68
2021/04/11 01:37:50;;;;;;;;;;;9.30;84.00;;;;;;5020026;28;87557;-68
2021/04/11 01:40:17;;;;;;;;;;;9.30;83.50;;;;;;5018333;28;87125;-67
2021/04/11 01:42:43;;;;;;;;;;;9.30;83.90;;;;;;5019965;28;87892;-68
2021/04/11 01:45:11;;;;;;;;;;;9.30;84.00;;;;;;5020484;28;89192;-68
2021/04/11 01:47:36;;;;;;;;;;;9.30;83.90;;;;;;5017919;28;87144;-68
2021/04/11 01:50:03;;;;;;;;;;;9.30;84.00;;;;;;5017915;28;87635;-68
2021/04/11 01:52:30;;;;;;;;;;;9.30;83.70;;;;;;5021601;28;87553;-68
2021/04/11 01:54:56;;;;;;;;;;;9.20;83.80;;;;;;5017587;28;87764;-68
2021/04/11 01:57:26;;;;;;;;;;;9.20;84.10;;;;;;5018499;28;88669;-68
2021/04/11 01:59:58;;;;;;;;;;;9.20;83.80;;;;;;5019864;28;87118;-68
2021/04/11 02:02:24;;;;;;;;;;;9.20;84.10;;;;;;5019348;28;89346;-68
2021/04/11 02:04:50;;;;;;;;;;;9.20;83.70;;;;;;5019964;28;88759;-68
2021/04/11 02:07:15;;;;;;;;;;;9.20;84.00;;;;;;5021025;28;87145;-68
2021/04/11 02:09:45;;;;;;;;;;;9.20;83.70;;;;;;5019744;28;89921;-68
2021/04/11 02:12:11;;;;;;;;;;;9.10;83.60;;;;;;5016308;28;88407;-68
2021/04/11 02:14:37;;;;;;;;;;;9.10;83.50;;;;;;5019949;28;88713;-68
2021/04/11 02:17:04;;;;;;;;;;;9.10;83.90;;;;;;5015845;28;87101;-68
2021/04/11 02:19:30;;;;;;;;;;;9.10;83.70;;;;;;5017743;28;87761;-68
2021/04/11 02:22:01;;;;;;;;;;;9.10;83.40;;;;;;5015997;28;87133;-68
2021/04/11 02:24:28;;;;;;;;;;;9.10;83.30;;;;;;5017920;28;88205;-68
2021/04/11 02:26:53;;;;;;;;;;;9.10;83.80;;;;;;5021067;28;86490;-68
2021/04/11 02:29:21;;;;;;;;;;;9.10;83.60;;;;;;5020056;28;87897;-68
2021/04/11 02:31:47;;;;;;;;;;;9.00;83.70;;;;;;5016831;28;88700;-68
2021/04/11 02:34:14;;;;;;;;;;;9.00;83.90;;;;;;5017738;28;88109;-68
2021/04/11 02:36:45;;;;;;;;;;;9.00;83.90;;;;;;5018671;28;87759;-68
2021/04/11 02:39:17;;;;;;;;;;;9.00;84.00;;;;;;5016472;28;87251;-68
2021/04/11 02:41:43;;;;;;;;;;;9.00;83.70;;;;;;5016942;28;87301;-68
2021/04/11 02:44:09;;;;;;;;;;;9.00;83.50;;;;;;5015750;28;88160;-68
2021/04/11 02:46:36;;;;;;;;;;;8.90;83.60;;;;;;5017851;28;88655;-68
2021/04/11 02:49:03;;;;;;;;;;;8.90;84.00;;;;;;5020034;28;88359;-68
2021/04/11 02:51:30;;;;;;;;;;;8.90;83.80;;;;;;5020672;28;87221;-68
2021/04/11 02:53:57;;;;;;;;;;;8.90;83.80;;;;;;5020325;28;87170;-68
2021/04/11 02:56:23;;;;;;;;;;;8.90;83.70;;;;;;5017784;28;87183;-68
2021/04/11 02:58:49;;;;;;;;;;;8.90;83.90;;;;;;5019904;28;88518;-68
2021/04/11 03:01:16;;;;;;;;;;;8.90;83.90;;;;;;5020208;28;88157;-68
2021/04/11 03:03:42;;;;;;;;;;;8.80;83.60;;;;;;5021042;28;87806;-68
2021/04/11 03:06:20;;;;;;;;;;;8.80;83.70;;;;;;5022611;28;87178;-68
2021/04/11 03:08:48;;;;;;;;;;;8.80;83.30;;;;;;5019575;28;87186;-68
2021/04/11 03:11:13;;;;;;;;;;;8.80;83.70;;;;;;5023720;28;88277;-68
2021/04/11 03:13:40;;;;;;;;;;;8.80;83.70;;;;;;5022575;28;87313;-68
2021/04/11 03:16:05;;;;;;;;;;;8.80;83.60;;;;;;5024072;28;87534;-68
2021/04/11 03:18:31;;;;;;;;;;;8.80;83.30;;;;;;5020989;28;88305;-68
2021/04/11 03:20:57;;;;;;;;;;;8.70;83.70;;;;;;5021913;28;87118;-68
2021/04/11 03:23:23;;;;;;;;;;;8.70;83.80;;;;;;5018633;28;89267;-68
2021/04/11 03:25:52;;;;;;;;;;;8.70;83.60;;;;;;5019464;28;87143;-68
2021/04/11 03:28:26;;;;;;;;;;;8.70;83.70;;;;;;5020617;28;87449;-68
2021/04/11 03:31:14;;;;;;;;;;;8.70;83.80;;;;;;5022210;28;87890;-68
2021/04/11 03:33:43;;;;;;;;;;;8.60;83.90;;;;;;5015251;28;87141;-68
2021/04/11 03:36:10;;;;;;;;;;;8.60;83.80;;;;;;5021812;28;87236;-68
2021/04/11 03:38:37;;;;;;;;;;;8.60;83.80;;;;;;5019919;28;88228;-68
2021/04/11 03:41:03;;;;;;;;;;;8.60;83.70;;;;;;5020606;28;86486;-68
2021/04/11 03:43:32;;;;;;;;;;;8.60;83.20;;;;;;5023772;28;87120;-68
2021/04/11 03:45:59;;;;;;;;;;;8.60;83.60;;;;;;5021927;28;88057;-68
2021/04/11 03:48:30;;;;;;;;;;;8.60;83.90;;;;;;5022135;28;89976;-68
2021/04/11 03:51:02;;;;;;;;;;;8.60;83.80;;;;;;5021347;28;88293;-68
2021/04/11 03:53:33;;;;;;;;;;;8.60;83.90;;;;;;5022548;28;87201;-68
2021/04/11 03:56:00;;;;;;;;;;;8.60;83.80;;;;;;5022121;28;88623;-68
2021/04/11 03:58:39;;;;;;;;;;;8.50;83.50;;;;;;5020717;28;88140;-68
2021/04/11 04:01:06;;;;;;;;;;;8.50;83.50;;;;;;5018596;28;87112;-68
2021/04/11 04:03:33;;;;;;;;;;;8.50;83.90;;;;;;5024999;28;87124;-68
2021/04/11 04:06:19;;;;;;;;;;;8.50;83.80;;;;;;5019959;28;86442;-68
2021/04/11 04:08:45;;;;;;;;;;;8.50;83.70;;;;;;5018194;28;87151;-68
2021/04/11 04:11:13;;;;;;;;;;;8.50;83.60;;;;;;5018016;28;88353;-68
2021/04/11 04:13:42;;;;;;;;;;;8.50;83.90;;;;;;5019345;28;88119;-68
2021/04/11 04:16:07;;;;;;;;;;;8.40;83.60;;;;;;5018100;28;88234;-68
2021/04/11 04:18:45;;;;;;;;;;;8.40;83.60;;;;;;5018215;28;87797;-68
2021/04/11 04:21:13;;;;;;;;;;;8.40;83.70;;;;;;5020887;28;88005;-68
2021/04/11 04:23:55;;;;;;;;;;;8.40;83.80;;;;;;5020025;28;87227;-68
2021/04/11 04:26:40;;;;;;;;;;;8.40;84.00;;;;;;5021649;28;87617;-68
2021/04/11 04:29:27;;;;;;;;;;;8.40;83.60;;;;;;5021129;28;87293;-68
2021/04/11 04:31:55;;;;;;;;;;;8.40;83.80;;;;;;5021118;28;87514;-68
2021/04/11 04:34:30;;;;;;;;;;;8.30;83.50;;;;;;5021321;28;87904;-68
2021/04/11 04:36:55;;;;;;;;;;;8.30;83.80;;;;;;5017598;28;87143;-68
2021/04/11 04:39:33;;;;;;;;;;;8.30;83.90;;;;;;5019581;28;88738;-67
2021/04/11 04:42:00;;;;;;;;;;;8.30;84.10;;;;;;5020372;28;87218;-68
2021/04/11 04:44:54;;;;;;;;;;;8.30;83.90;;;;;;5019304;28;87153;-68
2021/04/11 04:47:42;;;;;;;;;;;8.30;83.90;;;;;;5021751;28;87551;-68
2021/04/11 04:50:07;;;;;;;;;;;8.30;83.80;;;;;;5023018;28;87162;-68
2021/04/11 04:52:33;;;;;;;;;;;8.30;83.60;;;;;;5018497;28;88094;-68
2021/04/11 04:55:00;;;;;;;;;;;8.20;83.70;;;;;;5018169;28;87123;-68
2021/04/11 04:57:28;;;;;;;;;;;8.20;83.80;;;;;;5022453;28;86840;-68
2021/04/11 04:59:58;;;;;;;;;;;8.20;83.60;;;;;;5017270;28;87757;-68
2021/04/11 05:02:25;;;;;;;;;;;8.20;83.70;;;;;;5018146;28;87152;-68
2021/04/11 05:04:54;;;;;;;;;;;8.20;83.40;;;;;;5019055;28;89362;-68
2021/04/11 05:07:21;;;;;;;;;;;8.20;83.60;;;;;;5019307;28;87311;-68
2021/04/11 05:09:48;;;;;;;;;;;8.20;83.50;;;;;;5018275;28;87136;-68
2021/04/11 05:12:16;;;;;;;;;;;8.20;83.70;;;;;;5021684;28;87478;-68
2021/04/11 05:14:44;;;;;;;;;;;8.20;83.60;;;;;;5020315;28;87155;-68
2021/04/11 05:17:25;;;;;;;;;;;8.20;83.80;;;;;;5018237;28;87285;-68
2021/04/11 05:19:54;;;;;;;;;;;8.20;83.50;;;;;;5017155;28;88712;-68
2021/04/11 05:22:25;;;;;;;;;;;8.10;83.70;;;;;;5019819;28;86522;-68
2021/04/11 05:24:59;;;;;;;;;;;8.10;83.70;;;;;;5019527;28;87223;-68
2021/04/11 05:27:28;;;;;;;;;;;8.10;83.60;;;;;;5018481;28;88758;-68
2021/04/11 05:29:58;;;;;;;;;;;8.10;83.30;;;;;;5019208;28;88096;-68
2021/04/11 05:32:23;;;;;;;;;;;8.10;83.40;;;;;;5020948;28;87875;-68
2021/04/11 05:34:50;;;;;;;;;;;8.10;83.40;;;;;;5020427;28;88783;-68
2021/04/11 05:37:23;;;;;;;;;;;8.10;83.50;;;;;;5018207;28;88175;-68
2021/04/11 05:39:49;;;;;;;;;;;8.10;83.60;;;;;;5018687;28;88480;-68
2021/04/11 05:42:24;;;;;;;;;;;8.10;83.80;;;;;;5020207;28;87181;-68
2021/04/11 05:45:01;;;;;;;;;;;8.10;83.50;;;;;;5019521;28;88100;-68
2021/04/11 05:47:38;;;;;;;;;;;8.10;83.30;;;;;;5019325;28;87576;-68
2021/04/11 05:50:03;;;;;;;;;;;8.10;83.20;;;;;;5018606;28;87215;-68
2021/04/11 05:52:32;;;;;;;;;;;8.10;83.60;;;;;;5019326;28;87152;-68
2021/04/11 05:54:58;;;;;;;;;;;8.10;83.40;;;;;;5018106;28;89762;-68
2021/04/11 05:57:26;;;;;;;;;;;8.10;83.40;;;;;;5024231;28;87238;-68
2021/04/11 05:59:58;;;;;;;;;;;8.10;83.50;;;;;;5016933;28;87322;-68
2021/04/11 06:02:33;;;;;;;;;;;8.10;83.60;;;;;;5021206;28;88694;-68
2021/04/11 06:05:02;;;;;;;;;;;8.10;83.50;;;;;;5021293;28;87210;-68
2021/04/11 06:07:48;;;;;;;;;;;8.00;83.40;;;;;;5017261;28;87733;-68
2021/04/11 06:10:17;;;;;;;;;;;8.00;83.40;;;;;;4997166;28;87245;-68
2021/04/11 06:12:58;;;;;;;;;;;8.00;83.50;;;;;;5018313;28;87119;-68
2021/04/11 06:15:26;;;;;;;;;;;8.00;83.70;;;;;;5015937;28;88068;-68
2021/04/11 06:17:54;;;;;;;;;;;8.00;83.40;;;;;;5023333;28;87166;-68
2021/04/11 06:20:21;;;;;;;;;;;8.00;83.60;;;;;;5017810;28;88388;-68
2021/04/11 06:22:58;;;;;;;;;;;8.00;83.60;;;;;;5018481;28;87212;-68
2021/04/11 06:25:42;;;;;;;;;;;8.00;83.60;;;;;;5016832;28;87515;-68
2021/04/11 06:28:07;;;;;;;;;;;8.00;83.60;;;;;;5019498;28;87616;-68
2021/04/11 06:30:34;;;;;;;;;;;8.00;83.50;;;;;;5020018;28;87674;-68
2021/04/11 06:33:06;;;;;;;;;;;8.00;83.60;;;;;;5020182;28;87233;-68
2021/04/11 06:35:41;;;;;;;;;;;8.00;83.60;;;;;;5018850;28;87744;-68
2021/04/11 06:38:10;;;;;;;;;;;8.00;83.70;;;;;;5021092;28;86409;-68
2021/04/11 06:40:41;;;;;;;;;;;8.00;83.70;;;;;;5018995;28;87151;-68
2021/04/11 06:43:12;;;;;;;;;;;8.00;83.80;;;;;;5016242;28;87156;-68
2021/04/11 06:45:40;;;;;;;;;;;8.00;84.20;;;;;;5017719;28;89391;-68
2021/04/11 06:48:35;;;;;;;;;;;8.00;83.80;;;;;;5016858;28;88225;-68
2021/04/11 06:51:27;;;;;;;;;;;8.00;83.80;;;;;;5017979;28;87177;-68
2021/04/11 06:54:05;;;;;;;;;;;8.00;83.80;;;;;;5013862;28;87165;-68
2021/04/11 06:56:30;;;;;;;;;;;8.00;83.80;;;;;;5018612;28;88310;-68
2021/04/11 06:59:02;;;;;;;;;;;8.00;83.80;;;;;;5016109;28;88214;-68
2021/04/11 07:01:50;;;;;;;;;;;8.00;83.90;;;;;;5016187;28;87760;-68
2021/04/11 07:04:26;;;;;;;;;;;8.00;83.80;;;;;;5022370;28;87464;-68
2021/04/11 07:07:11;;;;;;;;;;;8.00;84.00;;;;;;5018811;28;87143;-68
2021/04/11 07:09:39;;;;;;;;;;;8.00;83.90;;;;;;5018674;28;88701;-68
2021/04/11 07:12:17;;;;;;;;;;;8.00;83.90;;;;;;5017539;28;88061;-68
2021/04/11 07:14:42;;;;;;;;;;;8.00;83.90;;;;;;5015598;28;88390;-68
2021/04/11 07:17:26;;;;;;;;;;;8.00;83.80;;;;;;5016102;28;87671;-68
2021/04/11 07:19:51;;;;;;;;;;;8.00;83.90;;;;;;5020112;28;87198;-68
2021/04/11 07:22:26;;;;;;;;;;;8.00;83.90;;;;;;5020243;28;87530;-68
2021/04/11 07:25:07;;;;;;;;;;;8.00;84.00;;;;;;5015701;28;88146;-68
2021/04/11 07:27:56;;;;;;;;;;;8.00;84.10;;;;;;5019111;28;87201;-68
2021/04/11 07:30:40;;;;;;;;;;;8.00;84.20;;;;;;4999017;28;87007;-68
2021/04/11 07:33:09;;;;;;;;;;;8.00;84.10;;;;;;5016880;28;88446;-68
2021/04/11 07:35:34;;;;;;;;;;;8.00;84.20;;;;;;5018435;28;87167;-68
2021/04/11 07:38:05;;;;;;;;;;;8.00;84.20;;;;;;5018393;28;88573;-68
2021/04/11 07:40:34;;;;;;;;;;;8.00;84.30;;;;;;5019757;28;87208;-68
2021/04/11 07:43:22;;;;;;;;;;;8.00;84.30;;;;;;5017049;28;87209;-68
2021/04/11 07:45:50;;;;;;;;;;;8.10;84.40;;;;;;5014814;28;88080;-68
2021/04/11 07:48:34;;;;;;;;;;;8.10;84.40;;;;;;5020641;28;87251;-68
2021/04/11 07:51:03;;;;;;;;;;;8.00;84.40;;;;;;5020946;28;87173;-68
2021/04/11 07:53:34;;;;;;;;;;;8.10;84.50;;;;;;5021867;28;87172;-68
2021/04/11 07:56:00;;;;;;;;;;;8.10;84.50;;;;;;5021262;28;87173;-68
2021/04/11 07:58:44;;;;;;;;;;;8.10;84.60;;;;;;5021560;28;87582;-68
2021/04/11 08:01:18;;;;;;;;;;;8.10;84.50;;;;;;5018300;28;87132;-68
2021/04/11 08:04:02;;;;;;;;;;;8.10;84.50;;;;;;5019515;28;88127;-68
2021/04/11 08:06:31;;;;;;;;;;;8.10;84.60;;;;;;5021354;28;88713;-68
2021/04/11 08:08:59;;;;;;;;;;;8.10;84.60;;;;;;5021116;28;87182;-68
2021/04/11 08:11:43;;;;;;;;;;;8.10;84.70;;;;;;5021224;28;87206;-68
2021/04/11 08:14:11;;;;;;;;;;;8.10;84.60;;;;;;5022386;28;87163;-68
2021/04/11 08:16:45;;;;;;;;;;;8.10;84.70;;;;;;5019819;28;87193;-68
2021/04/11 08:19:20;;;;;;;;;;;8.10;84.80;;;;;;5022567;28;88326;-68
2021/04/11 08:21:50;;;;;;;;;;;8.20;84.70;;;;;;5018978;28;87086;-68
2021/04/11 08:24:34;;;;;;;;;;;8.20;85.40;;;;;;5019352;28;87201;-68
2021/04/11 08:27:26;;;;;;;;;;;8.20;84.80;;;;;;5022210;28;87217;-68
2021/04/11 08:29:54;;;;;;;;;;;8.20;84.80;;;;;;5004910;28;89385;-68
2021/04/11 08:32:22;;;;;;;;;;;8.20;84.80;;;;;;5019931;28;88527;-68
2021/04/11 08:35:06;;;;;;;;;;;8.20;84.90;;;;;;5024991;28;88168;-68
2021/04/11 08:37:37;;;;;;;;;;;8.20;84.90;;;;;;5018816;28;87210;-68
2021/04/11 08:40:09;;;;;;;;;;;8.20;84.80;;;;;;5018000;28;88194;-68
2021/04/11 08:42:40;;;;;;;;;;;8.20;84.80;;;;;;5018175;28;88890;-68
2021/04/11 08:45:17;;;;;;;;;;;8.30;84.90;;;;;;5018039;28;87359;-68
2021/04/11 08:48:02;;;;;;;;;;;8.30;85.00;;;;;;5019564;28;87538;-68
2021/04/11 08:50:47;;;;;;;;;;;8.30;84.90;;;;;;5019227;28;87256;-68
2021/04/11 08:53:39;;;;;;;;;;;8.30;85.00;;;;;;5020001;28;87275;-68
2021/04/11 08:56:07;;;;;;;;;;;8.40;85.00;;;;;;5001384;28;88487;-68
2021/04/11 08:58:33;;;;;;;;;;;8.40;84.90;;;;;;5024566;28;87241;-68
2021/04/11 09:00:58;;;;;;;;;;;8.40;84.90;;;;;;5021096;28;87262;-68
2021/04/11 09:03:33;;;;;;;;;;;8.40;84.90;;;;;;5021814;28;87210;-68
2021/04/11 09:06:07;;;;;;;;;;;8.40;84.90;;;;;;5019663;28;88798;-68
2021/04/11 09:08:41;;;;;;;;;;;8.40;85.00;;;;;;5017556;28;88377;-68
2021/04/11 09:11:19;;;;;;;;;;;8.40;84.90;;;;;;5019217;28;87167;-68
2021/04/11 09:13:55;;;;;;;;;;;8.40;84.90;;;;;;5017689;28;86442;-68
2021/04/11 09:16:30;;;;;;;;;;;8.50;84.90;;;;;;5017410;28;88063;-68
2021/04/11 09:19:11;;;;;;;;;;;8.50;85.00;;;;;;5017791;28;87183;-68
2021/04/11 09:21:46;;;;;;;;;;;8.50;84.90;;;;;;5021494;28;88134;-68
2021/04/11 09:24:19;;;;;;;;;;;8.60;84.80;;;;;;5019117;28;88753;-68
2021/04/11 09:26:47;;;;;;;;;;;8.60;84.90;;;;;;5020699;28;87151;-68
2021/04/11 09:29:21;;;;;;;;;;;8.60;85.00;;;;;;5016570;28;88665;-68
2021/04/11 09:32:16;;;;;;;;;;;8.60;85.00;;;;;;5017017;28;87176;-68
2021/04/11 09:34:41;;;;;;;;;;;8.60;84.70;;;;;;4980180;28;87269;-68
2021/04/11 09:37:26;;;;;;;;;;;8.70;84.80;;;;;;5018166;28;88287;-68
2021/04/11 09:40:08;;;;;;;;;;;8.70;84.80;;;;;;5020983;28;86407;-68
2021/04/11 09:42:52;;;;;;;;;;;8.70;84.60;;;;;;5019284;28;87274;-68
2021/04/11 09:45:22;;;;;;;;;;;8.70;84.70;;;;;;5021838;28;89007;-68
2021/04/11 09:47:53;;;;;;;;;;;8.70;84.80;;;;;;5016478;28;89832;-68
2021/04/11 09:50:19;;;;;;;;;;;8.70;84.80;;;;;;5016438;28;88181;-68
2021/04/11 09:52:58;;;;;;;;;;;8.80;85.00;;;;;;5017602;28;87140;-69
2021/04/11 09:55:29;;;;;;;;;;;8.80;84.80;;;;;;5020060;28;88001;-68
2021/04/11 09:58:09;;;;;;;;;;;8.80;84.90;;;;;;5019073;28;87634;-68
2021/04/11 10:00:41;;;;;;;;;;;8.80;84.90;;;;;;5016291;28;87902;-68
2021/04/11 10:03:17;;;;;;;;;;;8.90;84.90;;;;;;5018055;28;87970;-68
2021/04/11 10:05:45;;;;;;;;;;;8.90;85.50;;;;;;5016064;28;88856;-68
2021/04/11 10:08:26;;;;;;;;;;;8.90;84.90;;;;;;5021929;28;87395;-68
2021/04/11 10:10:57;;;;;;;;;;;8.90;85.00;;;;;;5018508;28;88188;-68
2021/04/11 10:13:30;;;;;;;;;;;9.00;84.90;;;;;;5017283;28;88079;-68
2021/04/11 10:16:16;;;;;;;;;;;9.00;84.80;;;;;;5015965;28;88490;-59
2021/04/11 10:18:44;;;;;;;;;;;9.00;84.70;;;;;;5014972;28;90026;-63
2021/04/11 10:21:13;;;;;;;;;;;10.10;66.70;;;;;;5018830;28;87261;-63
2021/04/11 10:23:45;;;;;;;;;;;10.20;66.00;;;;;;5020498;28;87668;-63
2021/04/11 10:26:33;;;;;;;;;;;10.20;67.40;;;;;;5018415;28;87579;-64
2021/04/11 10:29:06;;;;;;;;;;;10.30;65.90;;;;;;5016875;28;87189;-64
2021/04/11 10:31:37;;;;;;;;;;;10.10;67.70;;;;;;5018639;28;87336;-63
2021/04/11 10:34:02;;;;;;;;;;;10.00;69.10;;;;;;5019090;28;87122;-63
2021/04/11 10:36:30;;;;;;;;;;;10.00;67.30;;;;;;5019411;28;87159;-63
2021/04/11 10:39:01;;;;;;;;;;;10.20;68.20;;;;;;5016306;28;89016;-63
2021/04/11 10:41:30;;;;;;;;;;;10.30;65.20;;;;;;5017035;28;87234;-63
2021/04/11 10:43:56;;;;;;;;;;;10.10;66.70;;;;;;5020356;28;88985;-64
2021/04/11 10:46:42;;;;;;;;;;;10.20;67.30;;;;;;5019995;28;88352;-64
2021/04/11 10:49:21;;;;;;;;;;;10.20;64.00;;;;;;5019252;28;87151;-63
2021/04/11 10:51:58;;;;;;;;;;;10.20;63.30;;;;;;5019584;28;87709;-63
2021/04/11 10:54:26;;;;;;;;;;;10.30;65.90;;;;;;5016226;28;87163;-64
2021/04/11 10:57:10;;;;;;;;;;;10.50;63.00;;;;;;5019610;28;87519;-64
2021/04/11 10:59:41;;;;;;;;;;;10.60;63.40;;;;;;5014555;28;89301;-64
2021/04/11 11:02:10;;;;;;;;;;;11.10;58.40;;;;;;5017655;28;87231;-64
2021/04/11 11:04:38;;;;;;;;;;;10.90;58.80;;;;;;5017955;28;88144;-63
2021/04/11 11:07:17;;;;;;;;;;;10.80;58.40;;;;;;5014797;28;88242;-65
2021/04/11 11:09:43;;;;;;;;;;;10.90;58.00;;;;;;5018601;28;87134;-68
2021/04/11 11:12:27;;;;;;;;;;;11.00;58.60;;;;;;5017637;28;87165;-72
2021/04/11 11:15:11;;;;;;;;;;;10.90;63.70;;;;;;5020725;28;88727;-68
2021/04/11 11:18:02;;;;;;;;;;;11.00;59.70;;;;;;5017274;28;87521;-79
2021/04/11 11:20:30;;;;;;;;;;;11.10;58.90;;;;;;5007092;28;88440;-66
2021/04/11 11:23:15;;;;;;;;;;;11.20;58.80;;;;;;5020866;28;87574;-61
2021/04/11 11:25:51;;;;;;;;;;;11.20;57.50;;;;;;5018964;28;87137;-64
2021/04/11 11:28:32;;;;;;;;;;;11.30;57.10;;;;;;5020086;28;89859;-64
2021/04/11 11:30:57;;;;;;;;;;;11.20;58.80;;;;;;5022734;28;88129;-64
2021/04/11 11:33:29;;;;;;;;;;;11.00;58.30;;;;;;5022102;28;88708;-65
2021/04/11 11:36:06;;;;;;;;;;;11.00;57.50;;;;;;5022080;28;88051;-63
2021/04/11 11:38:50;;;;;;;;;;;11.10;57.10;;;;;;5022240;28;87159;-64
2021/04/11 11:41:21;;;;;;;;;;;11.20;60.40;;;;;;5021538;28;88242;-61
2021/04/11 11:43:52;;;;;;;;;;;11.20;57.20;;;;;;5020647;28;87196;-63
2021/04/11 11:46:24;;;;;;;;;;;11.30;57.30;;;;;;5019340;28;87647;-63
2021/04/11 11:49:09;;;;;;;;;;;11.30;58.10;;;;;;5019846;28;87329;-63
2021/04/11 11:51:35;;;;;;;;;;;11.60;51.60;;;;;;5020810;28;87214;-63
2021/04/11 11:54:06;;;;;;;;;;;11.40;57.60;;;;;;5022043;28;87188;-63
2021/04/11 11:56:37;;;;;;;;;;;11.40;54.60;;;;;;5021255;28;88981;-63
2021/04/11 11:59:02;;;;;;;;;;;11.40;55.00;;;;;;5022394;28;87194;-63
2021/04/11 12:01:33;;;;;;;;;;;11.50;53.10;;;;;;5025463;28;87148;-62
2021/04/11 12:04:13;;;;;;;;;;;11.60;54.40;;;;;;5021722;28;87556;-64
2021/04/11 12:06:48;;;;;;;;;;;11.40;55.50;;;;;;5018709;28;87158;-63
2021/04/11 12:09:24;;;;;;;;;;;11.30;55.70;;;;;;5019334;28;87801;-63
2021/04/11 12:11:52;;;;;;;;;;;11.20;54.20;;;;;;5019944;28;87133;-63
2021/04/11 12:14:21;;;;;;;;;;;11.40;54.30;;;;;;5022716;28;86592;-64
2021/04/11 12:17:01;;;;;;;;;;;11.60;54.70;;;;;;5018725;28;88232;-63
2021/04/11 12:19:31;;;;;;;;;;;11.40;56.10;;;;;;5018062;28;87187;-64
2021/04/11 12:21:59;;;;;;;;;;;11.60;52.70;;;;;;5018768;28;88073;-64
2021/04/11 12:24:31;;;;;;;;;;;11.50;55.60;;;;;;5024992;28;87662;-64
2021/04/11 12:26:58;;;;;;;;;;;11.50;53.80;;;;;;5022532;28;87388;-65
2021/04/11 12:29:25;;;;;;;;;;;11.40;54.60;;;;;;5019165;28;87280;-61
2021/04/11 12:32:01;;;;;;;;;;;11.60;55.90;;;;;;5020311;28;88628;-64
2021/04/11 12:34:29;;;;;;;;;;;11.60;56.00;;;;;;5016813;28;87605;-71
2021/04/11 12:37:03;;;;;;;;;;;11.70;55.80;;;;;;5019720;28;88109;-64
2021/04/11 12:39:30;;;;;;;;;;;11.70;58.30;;;;;;5021359;28;86611;-67
2021/04/11 12:42:16;;;;;;;;;;;11.90;55.40;;;;;;5019571;28;87160;-67
2021/04/11 12:45:07;;;;;;;;;;;12.00;51.80;;;;;;5020261;28;88214;-64
2021/04/11 12:47:32;;;;;;;;;;;11.90;53.80;;;;;;5016882;28;88047;-65
2021/04/11 12:50:05;;;;;;;;;;;11.80;54.30;;;;;;5016939;28;89209;-64
2021/04/11 12:52:33;;;;;;;;;;;12.00;53.50;;;;;;5021228;28;88887;-64
2021/04/11 12:55:21;;;;;;;;;;;11.80;55.70;;;;;;5020382;28;87252;-64
2021/04/11 12:57:59;;;;;;;;;;;11.80;55.70;;;;;;5017653;28;88407;-64
2021/04/11 13:00:30;;;;;;;;;;;11.80;54.90;;;;;;5019379;28;88865;-68
2021/04/11 13:03:01;;;;;;;;;;;11.90;55.00;;;;;;5019385;28;88520;-69
2021/04/11 13:05:37;;;;;;;;;;;12.00;52.50;;;;;;5021308;28;87999;-66
2021/04/11 13:08:03;;;;;;;;;;;12.10;51.80;;;;;;5022425;28;88219;-62
2021/04/11 13:10:29;;;;;;;;;;;12.20;52.30;;;;;;5017027;28;88632;-65
2021/04/11 13:13:05;;;;;;;;;;;12.40;47.50;;;;;;5018563;28;89747;-65
2021/04/11 13:15:50;;;;;;;;;;;12.30;52.60;;;;;;5017113;28;88020;-66
2021/04/11 13:18:16;;;;;;;;;;;12.40;48.30;;;;;;5019035;28;88155;-65
2021/04/11 13:20:46;;;;;;;;;;;12.40;49.70;;;;;;5018009;28;87137;-65
2021/04/11 13:23:21;;;;;;;;;;;12.40;49.10;;;;;;5017500;28;87725;-65
2021/04/11 13:26:07;;;;;;;;;;;12.20;51.00;;;;;;5016857;28;88294;-65
2021/04/11 13:28:36;;;;;;;;;;;12.20;52.10;;;;;;5010269;28;88732;-65
2021/04/11 13:31:12;;;;;;;;;;;12.50;49.90;;;;;;5022240;28;87431;-64
2021/04/11 13:33:48;;;;;;;;;;;12.50;50.40;;;;;;5018725;28;87160;-66
2021/04/11 13:36:32;;;;;;;;;;;12.70;50.40;;;;;;5020366;28;87190;-67
2021/04/11 13:39:00;;;;;;;;;;;12.60;49.50;;;;;;5015845;28;89115;-67
2021/04/11 13:41:29;;;;;;;;;;;12.60;47.70;;;;;;5021442;28;88977;-68
2021/04/11 13:44:03;;;;;;;;;;;12.70;48.00;;;;;;5018633;28;87562;-66
2021/04/11 13:46:38;;;;;;;;;;;12.60;49.90;;;;;;5017302;28;88426;-65
2021/04/11 13:49:15;;;;;;;;;;;12.50;50.70;;;;;;5017315;28;87135;-65
2021/04/11 13:51:46;;;;;;;;;;;12.50;52.40;;;;;;5021047;28;89108;-65
2021/04/11 13:54:21;;;;;;;;;;;12.40;50.70;;;;;;5020591;28;88022;-65
2021/04/11 13:56:50;;;;;;;;;;;12.50;47.60;;;;;;5018004;28;87715;-65
2021/04/11 13:59:18;;;;;;;;;;;12.50;50.70;;;;;;5020096;28;87671;-65
2021/04/11 14:01:53;;;;;;;;;;;12.50;48.60;;;;;;5018831;28;87892;-66
2021/04/11 14:04:24;;;;;;;;;;;12.70;47.70;;;;;;5015621;28;88104;-65
2021/04/11 14:07:00;;;;;;;;;;;12.70;50.00;;;;;;5020472;28;87650;-66
2021/04/11 14:09:36;;;;;;;;;;;12.70;50.30;;;;;;5020204;28;87123;-66
2021/04/11 14:12:05;;;;;;;;;;;12.70;50.00;;;;;;5018362;28;87482;-66
2021/04/11 14:14:35;;;;;;;;;;;12.70;49.60;;;;;;5017793;28;88653;-61
2021/04/11 14:17:01;;;;;;;;;;;12.70;51.50;;;;;;5021956;28;88669;-66
2021/04/11 14:19:49;;;;;;;;;;;12.80;51.20;;;;;;5020443;28;89404;-64
2021/04/11 14:22:21;;;;;;;;;;;13.00;48.10;;;;;;5013296;27;86492;-63
2021/04/11 14:25:11;;;;;;;;;;;13.00;48.30;;;;;;5018844;28;87825;-64
2021/04/11 14:27:36;;;;;;;;;;;13.10;48.50;;;;;;5016832;28;87691;-64
2021/04/11 14:33:01;;;;;;;;;;;13.30;47.60;;;;;;5019272;28;87543;-64
2021/04/11 14:35:30;;;;;;;;;;;13.30;49.70;;;;;;5015557;28;89632;-64
2021/04/11 14:38:14;;;;;;;;;;;13.30;49.00;;;;;;5019263;28;87172;-65
2021/04/11 14:40:49;;;;;;;;;;;13.40;48.20;;;;;;5020542;28;88782;-65
2021/04/11 14:43:21;;;;;;;;;;;13.60;48.10;;;;;;5016568;28;88697;-65
2021/04/11 14:45:53;;;;;;;;;;;13.50;48.60;;;;;;5018225;28;88066;-64
2021/04/11 14:48:26;;;;;;;;;;;13.40;49.70;;;;;;5019892;28;88052;-64
2021/04/11 14:50:53;;;;;;;;;;;13.20;49.50;;;;;;5015372;28;87178;-64
2021/04/11 14:53:36;;;;;;;;;;;13.20;47.10;;;;;;5018169;28;87293;-64
2021/04/11 14:56:14;;;;;;;;;;;13.30;48.40;;;;;;5015771;28;88554;-64
2021/04/11 14:58:47;;;;;;;;;;;13.40;48.60;;;;;;5018867;28;88286;-65